Archival Weather

Luke Afb

Glendale, Arizona (KLUF)

Report from: Friday, April 19, 2024 9:14 PM MST
Current time: Monday, June 24, 2024 2:20 AM MST

Current weather – Weather history – Daily summaries
Weather forecast

Present weatherLight rain
Temperature27.0°C (80.6°F)
Heat index26.2°C (79.2°F)
Dew point-2.0°C (28.4°F)
Winds 4 kts (2.1 m/s, 4.6 mph) West-Northwest (290°)
Visibility9 mi. (14.5 km)
Clouds Few clouds 2,000 ft. (610 m)
Ceiling: Broken clouds 16,000 ft. (4,877 m)
Altimeter29.76 in.Hg (1008 mB)
Precip. events Rain began 4:14 AM
Relative humidity15 %
Density altitude1,697 ft. (517 m)
Sea-level pressure100.7 kPa (1007 mB, 29.72 in.Hg)
Remarks Fully automated report
System requires maintenance
Automated weather observing station with precipitation discriminator
Flight conditions Visual Meteorological Conditions
Raw dataKLUF 200414Z AUTO 29004KT 9SM -RA FEW020 BKN160 27/M02 A2976 RMK AO2 RAB14 SLP065 $
An error has occurred. This application may no longer respond until reloaded. Reload 🗙